SAS1804 LEMG-ESSA
Flight info
| Callsign | SAS1804 |
|---|---|
| Flight time | 3h 42m |
| Altitude | 38000 |
| Route | BLN N865 VTB N867 RBO DCT OSTIX N867 DGO N858 ABRIX DCT CNA DCT ADABI DCT BOKNO UN858 VANAD UN874 PIWIZ DCT VADOM UN874 ARSAF DCT EGOZE DCT CMB DCT VEKIN DCT ADUTO/N0440F390 DCT VICOT DCT IPSUB DCT GIXUN DCT DETSO N873 ARS T317 ELTOK |
| Aircraft | A20N/M-SDE3FGIJ1RWXY/ALB1 |
Departure
| Time | 2026-05-04 15:37 |
|---|---|
| Airport | Málaga-Costa del Sol Airport (LEMG) |
Arrival
| Time | 2026-05-04 19:19 |
|---|---|
| Airport | Stockholm-Arlanda Airport (ESSA) |
| Time | Latitude | Longitude | Altitude | Speed | Heading |
|---|---|---|---|---|---|
| 2026-05-04 15:09 | 36.67865 | -4.49456 | 52 ft | 0 kts | 212° |
| 2026-05-04 15:26 | 36.67875 | -4.49448 | 51 ft | 2 kts | 212° |
| 2026-05-04 15:27 | 36.67889 | -4.49438 | 51 ft | 2 kts | 222° |
| 2026-05-04 15:27 | 36.67898 | -4.49404 | 51 ft | 2 kts | 282° |
| 2026-05-04 15:28 | 36.67889 | -4.49382 | 50 ft | 1 kts | 314° |
| 2026-05-04 15:28 | 36.67887 | -4.49380 | 50 ft | 0 kts | 312° |
| 2026-05-04 15:30 | 36.67913 | -4.49415 | 50 ft | 7 kts | 311° |
| 2026-05-04 15:31 | 36.67991 | -4.49527 | 50 ft | 9 kts | 311° |
| 2026-05-04 15:31 | 36.68047 | -4.49566 | 50 ft | 10 kts | 11° |
| 2026-05-04 15:32 | 36.68271 | -4.49329 | 49 ft | 15 kts | 51° |
| 2026-05-04 15:32 | 36.68200 | -4.49071 | 48 ft | 17 kts | 118° |
| 2026-05-04 15:33 | 36.68090 | -4.48809 | 47 ft | 17 kts | 118° |
| 2026-05-04 15:34 | 36.67915 | -4.48395 | 46 ft | 18 kts | 117° |
| 2026-05-04 15:34 | 36.67857 | -4.48254 | 45 ft | 18 kts | 118° |
| 2026-05-04 15:34 | 36.67735 | -4.47964 | 44 ft | 18 kts | 118° |
| 2026-05-04 15:35 | 36.67736 | -4.47743 | 43 ft | 13 kts | 54° |
| 2026-05-04 15:35 | 36.67797 | -4.47697 | 43 ft | 7 kts | 336° |
| 2026-05-04 15:35 | 36.67817 | -4.47722 | 43 ft | 0 kts | 301° |
| 2026-05-04 15:36 | 36.68142 | -4.48491 | 46 ft | 118 kts | 298° |
| 2026-05-04 15:36 | 36.68616 | -4.49606 | 63 ft | 171 kts | 298° |
| 2026-05-04 15:36 | 36.69263 | -4.50890 | 614 ft | 178 kts | 309° |
| 2026-05-04 15:37 | 36.70126 | -4.51951 | 1414 ft | 176 kts | 314° |
| 2026-05-04 15:37 | 36.70978 | -4.53005 | 2103 ft | 176 kts | 313° |
| 2026-05-04 15:37 | 36.71846 | -4.54158 | 2516 ft | 191 kts | 311° |
| 2026-05-04 15:37 | 36.72744 | -4.55446 | 2924 ft | 206 kts | 309° |
| 2026-05-04 15:38 | 36.73670 | -4.56841 | 3532 ft | 211 kts | 308° |
| 2026-05-04 15:38 | 36.74600 | -4.58274 | 4143 ft | 218 kts | 308° |
| 2026-05-04 15:38 | 36.75749 | -4.59485 | 4933 ft | 220 kts | 333° |
| 2026-05-04 15:38 | 36.77203 | -4.60086 | 5615 ft | 226 kts | 343° |
| 2026-05-04 15:39 | 36.78719 | -4.60581 | 6339 ft | 228 kts | 342° |
| 2026-05-04 15:39 | 36.80246 | -4.61071 | 7053 ft | 230 kts | 347° |
| 2026-05-04 15:39 | 36.83442 | -4.59961 | 8051 ft | 265 kts | 28° |
| 2026-05-04 15:40 | 36.85071 | -4.58751 | 8461 ft | 282 kts | 28° |
| 2026-05-04 15:40 | 36.86807 | -4.57473 | 8951 ft | 297 kts | 28° |
| 2026-05-04 15:40 | 36.88591 | -4.56167 | 9645 ft | 302 kts | 28° |
| 2026-05-04 15:40 | 36.90431 | -4.54820 | 10375 ft | 307 kts | 27° |
| 2026-05-04 15:41 | 36.92317 | -4.53444 | 10798 ft | 322 kts | 27° |
| 2026-05-04 15:41 | 36.94304 | -4.52002 | 11190 ft | 338 kts | 27° |
| 2026-05-04 15:41 | 36.96339 | -4.50523 | 11783 ft | 346 kts | 27° |
| 2026-05-04 15:41 | 36.98423 | -4.49005 | 12461 ft | 351 kts | 27° |
| 2026-05-04 15:42 | 37.00540 | -4.47462 | 13130 ft | 355 kts | 27° |
| 2026-05-04 15:42 | 37.02703 | -4.45884 | 13784 ft | 360 kts | 27° |
| 2026-05-04 15:42 | 37.04882 | -4.44297 | 14395 ft | 366 kts | 26° |
| 2026-05-04 15:42 | 37.07091 | -4.42688 | 15036 ft | 370 kts | 26° |
| 2026-05-04 15:43 | 37.09318 | -4.41065 | 15673 ft | 373 kts | 26° |
| 2026-05-04 15:43 | 37.11547 | -4.39438 | 16311 ft | 376 kts | 26° |
| 2026-05-04 15:43 | 37.13834 | -4.37767 | 16922 ft | 380 kts | 26° |
| 2026-05-04 15:43 | 37.16110 | -4.36104 | 17491 ft | 384 kts | 26° |
| 2026-05-04 15:44 | 37.18422 | -4.34412 | 18065 ft | 389 kts | 26° |
| 2026-05-04 15:44 | 37.20781 | -4.32688 | 18638 ft | 393 kts | 26° |
| 2026-05-04 15:44 | 37.23149 | -4.30955 | 19213 ft | 396 kts | 26° |
| 2026-05-04 15:44 | 37.25515 | -4.29221 | 19764 ft | 400 kts | 26° |
| 2026-05-04 15:45 | 37.27926 | -4.27451 | 20292 ft | 404 kts | 26° |
| 2026-05-04 15:45 | 37.30374 | -4.25655 | 20837 ft | 407 kts | 26° |
| 2026-05-04 15:45 | 37.32807 | -4.23869 | 21355 ft | 411 kts | 26° |
| 2026-05-04 15:45 | 37.35301 | -4.22035 | 21897 ft | 414 kts | 26° |
| 2026-05-04 15:46 | 37.37764 | -4.20222 | 22423 ft | 417 kts | 26° |
| 2026-05-04 15:46 | 37.40288 | -4.18362 | 22933 ft | 420 kts | 26° |
| 2026-05-04 15:46 | 37.42828 | -4.16491 | 23413 ft | 423 kts | 26° |
| 2026-05-04 15:46 | 37.45349 | -4.14634 | 23856 ft | 427 kts | 25° |
| 2026-05-04 15:47 | 37.47937 | -4.12722 | 24305 ft | 431 kts | 25° |
| 2026-05-04 15:47 | 37.50505 | -4.10824 | 24747 ft | 434 kts | 25° |
| 2026-05-04 15:47 | 37.53118 | -4.08894 | 25155 ft | 438 kts | 25° |
| 2026-05-04 15:47 | 37.55768 | -4.06933 | 25556 ft | 441 kts | 25° |
| 2026-05-04 15:48 | 37.58397 | -4.04986 | 25953 ft | 444 kts | 25° |
| 2026-05-04 15:48 | 37.61078 | -4.03001 | 26329 ft | 448 kts | 25° |
| 2026-05-04 15:48 | 37.66477 | -3.98995 | 27102 ft | 453 kts | 25° |
| 2026-05-04 15:49 | 37.69210 | -3.96965 | 27471 ft | 456 kts | 25° |
| 2026-05-04 15:49 | 37.71933 | -3.94939 | 27817 ft | 459 kts | 25° |
| 2026-05-04 15:49 | 37.74697 | -3.92882 | 28174 ft | 462 kts | 25° |
| 2026-05-04 15:49 | 37.77477 | -3.90812 | 28524 ft | 465 kts | 25° |
| 2026-05-04 15:50 | 37.80233 | -3.88758 | 28850 ft | 467 kts | 25° |
| 2026-05-04 15:50 | 37.83040 | -3.86663 | 29183 ft | 470 kts | 25° |
| 2026-05-04 15:50 | 37.85887 | -3.84535 | 29527 ft | 472 kts | 25° |
| 2026-05-04 15:50 | 37.88697 | -3.82434 | 29865 ft | 474 kts | 25° |
| 2026-05-04 15:51 | 37.91548 | -3.80300 | 30179 ft | 477 kts | 25° |
| 2026-05-04 15:51 | 37.94423 | -3.78147 | 30462 ft | 479 kts | 25° |
| 2026-05-04 15:51 | 37.97276 | -3.76011 | 30743 ft | 481 kts | 25° |
| 2026-05-04 15:51 | 38.00151 | -3.73854 | 30987 ft | 484 kts | 25° |
| 2026-05-04 15:52 | 38.03046 | -3.71681 | 31263 ft | 486 kts | 25° |
| 2026-05-04 15:52 | 38.05947 | -3.69499 | 31520 ft | 488 kts | 25° |
| 2026-05-04 15:52 | 38.08915 | -3.67340 | 31764 ft | 488 kts | 22° |
| 2026-05-04 15:52 | 38.11946 | -3.65481 | 32012 ft | 485 kts | 17° |
| 2026-05-04 15:53 | 38.15102 | -3.63938 | 32278 ft | 481 kts | 11° |
| 2026-05-04 15:53 | 38.18267 | -3.62766 | 32583 ft | 475 kts | 6° |
| 2026-05-04 15:53 | 38.21486 | -3.61930 | 32901 ft | 469 kts | 1° |
| 2026-05-04 15:53 | 38.24709 | -3.61432 | 33202 ft | 464 kts | 356° |
| 2026-05-04 15:54 | 38.27930 | -3.61114 | 33473 ft | 462 kts | 355° |
| 2026-05-04 15:54 | 38.31137 | -3.60833 | 33741 ft | 461 kts | 355° |
| 2026-05-04 15:54 | 38.34339 | -3.60552 | 33996 ft | 461 kts | 355° |
| 2026-05-04 15:54 | 38.37499 | -3.60267 | 34222 ft | 461 kts | 355° |
| 2026-05-04 15:55 | 38.40707 | -3.59970 | 34445 ft | 461 kts | 356° |
| 2026-05-04 15:55 | 38.43918 | -3.59664 | 34693 ft | 460 kts | 356° |
| 2026-05-04 15:55 | 38.47083 | -3.59360 | 34904 ft | 460 kts | 356° |
| 2026-05-04 15:55 | 38.50272 | -3.59053 | 35125 ft | 459 kts | 356° |
| 2026-05-04 15:56 | 38.53448 | -3.58745 | 35347 ft | 458 kts | 356° |
| 2026-05-04 15:56 | 38.56629 | -3.58435 | 35560 ft | 458 kts | 356° |
| 2026-05-04 15:56 | 38.59811 | -3.58126 | 35765 ft | 457 kts | 356° |
| 2026-05-04 15:56 | 38.62958 | -3.57821 | 35958 ft | 457 kts | 356° |
| 2026-05-04 15:57 | 38.69300 | -3.57205 | 36006 ft | 456 kts | 356° |
| 2026-05-04 15:57 | 38.75628 | -3.56587 | 36005 ft | 456 kts | 356° |
| 2026-05-04 15:58 | 38.81932 | -3.55973 | 36006 ft | 456 kts | 356° |
| 2026-05-04 15:58 | 38.88285 | -3.55351 | 36004 ft | 456 kts | 356° |
| 2026-05-04 15:59 | 38.94585 | -3.54736 | 36008 ft | 455 kts | 356° |
| 2026-05-04 15:59 | 39.00887 | -3.54117 | 36003 ft | 455 kts | 356° |
| 2026-05-04 16:00 | 39.07194 | -3.53486 | 35998 ft | 455 kts | 356° |
| 2026-05-04 16:00 | 39.13541 | -3.52852 | 35992 ft | 455 kts | 356° |
| 2026-05-04 16:01 | 39.19834 | -3.52224 | 35992 ft | 456 kts | 356° |
| 2026-05-04 16:01 | 39.26171 | -3.51591 | 35988 ft | 455 kts | 356° |
| 2026-05-04 16:02 | 39.32475 | -3.50964 | 35984 ft | 459 kts | 356° |
| 2026-05-04 16:03 | 39.42162 | -3.49999 | 35979 ft | 469 kts | 357° |
| 2026-05-04 16:03 | 39.48632 | -3.49346 | 35980 ft | 470 kts | 357° |
| 2026-05-04 16:04 | 39.55139 | -3.48691 | 35973 ft | 469 kts | 357° |
| 2026-05-04 16:04 | 39.64870 | -3.47712 | 35968 ft | 469 kts | 357° |
| 2026-05-04 16:05 | 39.71354 | -3.47064 | 35968 ft | 468 kts | 357° |
| 2026-05-04 16:06 | 39.81105 | -3.45810 | 35961 ft | 472 kts | 1° |
| 2026-05-04 16:07 | 39.94068 | -3.43197 | 35958 ft | 473 kts | 2° |
| 2026-05-04 16:08 | 40.07069 | -3.40576 | 35966 ft | 473 kts | 2° |
| 2026-05-04 16:09 | 40.23312 | -3.37303 | 35966 ft | 475 kts | 2° |
| 2026-05-04 16:10 | 40.36418 | -3.34652 | 35958 ft | 478 kts | 2° |
| 2026-05-04 16:11 | 40.49585 | -3.31975 | 35954 ft | 479 kts | 3° |
| 2026-05-04 16:12 | 40.69321 | -3.27945 | 35972 ft | 479 kts | 3° |
| 2026-05-04 16:13 | 40.82460 | -3.25251 | 35964 ft | 478 kts | 3° |
| 2026-05-04 16:14 | 40.89039 | -3.23857 | 36183 ft | 480 kts | 4° |
| 2026-05-04 16:14 | 40.95601 | -3.22375 | 35999 ft | 477 kts | 4° |
| 2026-05-04 16:16 | 41.11984 | -3.18684 | 35963 ft | 478 kts | 4° |
| 2026-05-04 16:17 | 41.28360 | -3.14992 | 35968 ft | 478 kts | 4° |
| 2026-05-04 16:18 | 41.41462 | -3.12025 | 35970 ft | 478 kts | 5° |
| 2026-05-04 16:19 | 41.57802 | -3.08314 | 35968 ft | 478 kts | 5° |
| 2026-05-04 16:20 | 41.74178 | -3.04591 | 35965 ft | 479 kts | 5° |
| 2026-05-04 16:22 | 41.90535 | -3.00813 | 35966 ft | 478 kts | 5° |
| 2026-05-04 16:23 | 42.10221 | -2.96252 | 35970 ft | 478 kts | 5° |
| 2026-05-04 16:25 | 42.29857 | -2.91682 | 35967 ft | 479 kts | 6° |
| 2026-05-04 16:26 | 42.52305 | -2.82618 | 36107 ft | 484 kts | 32° |
| 2026-05-04 16:27 | 42.57659 | -2.77301 | 36534 ft | 476 kts | 44° |
| 2026-05-04 16:28 | 42.63833 | -2.67164 | 37420 ft | 453 kts | 64° |
| 2026-05-04 16:28 | 42.67768 | -2.55856 | 38349 ft | 435 kts | 71° |
| 2026-05-04 16:29 | 42.74493 | -2.42686 | 38068 ft | 443 kts | 38° |
| 2026-05-04 16:30 | 42.82893 | -2.36428 | 36206 ft | 483 kts | 22° |
| 2026-05-04 16:31 | 42.88979 | -2.32413 | 35983 ft | 487 kts | 24° |
| 2026-05-04 16:32 | 43.07112 | -2.19953 | 36000 ft | 487 kts | 25° |
| 2026-05-04 16:33 | 43.19190 | -2.11555 | 36001 ft | 486 kts | 25° |
| 2026-05-04 16:34 | 43.28245 | -2.05233 | 36000 ft | 487 kts | 25° |
| 2026-05-04 16:35 | 43.46274 | -1.92582 | 36001 ft | 487 kts | 26° |
| 2026-05-04 16:36 | 43.55298 | -1.86217 | 35996 ft | 487 kts | 26° |
| 2026-05-04 16:37 | 43.64325 | -1.79830 | 35988 ft | 487 kts | 26° |
| 2026-05-04 16:38 | 43.76383 | -1.71263 | 35990 ft | 487 kts | 26° |
| 2026-05-04 16:39 | 43.91361 | -1.60566 | 35983 ft | 486 kts | 26° |
| 2026-05-04 16:40 | 44.03356 | -1.51957 | 35986 ft | 486 kts | 26° |
| 2026-05-04 16:41 | 44.18319 | -1.41162 | 35976 ft | 487 kts | 26° |
| 2026-05-04 16:43 | 44.33314 | -1.30280 | 35976 ft | 486 kts | 27° |
| 2026-05-04 16:43 | 44.42305 | -1.23725 | 35971 ft | 487 kts | 27° |
| 2026-05-04 16:45 | 44.60208 | -1.10603 | 35977 ft | 485 kts | 27° |
| 2026-05-04 16:46 | 44.75139 | -0.99590 | 35965 ft | 485 kts | 27° |
| 2026-05-04 16:47 | 44.87058 | -0.90753 | 35961 ft | 485 kts | 28° |
| 2026-05-04 16:48 | 44.98979 | -0.81871 | 35966 ft | 486 kts | 28° |
| 2026-05-04 16:49 | 45.10915 | -0.72933 | 35949 ft | 486 kts | 28° |
| 2026-05-04 16:50 | 45.22846 | -0.63960 | 35951 ft | 486 kts | 28° |
| 2026-05-04 16:51 | 45.31806 | -0.57191 | 35946 ft | 486 kts | 28° |
| 2026-05-04 16:52 | 45.43715 | -0.48157 | 35936 ft | 487 kts | 28° |
| 2026-05-04 16:53 | 45.52654 | -0.41343 | 35944 ft | 487 kts | 28° |
| 2026-05-04 16:54 | 45.64571 | -0.32213 | 35939 ft | 487 kts | 30° |
| 2026-05-04 16:55 | 45.82121 | -0.17762 | 35923 ft | 488 kts | 20° |
| 2026-05-04 16:56 | 45.98075 | -0.09538 | 35911 ft | 489 kts | 20° |
| 2026-05-04 16:57 | 46.07621 | -0.04469 | 35902 ft | 489 kts | 20° |
| 2026-05-04 16:58 | 46.20206 | 0.02261 | 35906 ft | 489 kts | 20° |
| 2026-05-04 17:00 | 46.39305 | 0.12541 | 35905 ft | 487 kts | 20° |
| 2026-05-04 17:01 | 46.55148 | 0.21130 | 35923 ft | 487 kts | 21° |
| 2026-05-04 17:02 | 46.67823 | 0.27996 | 35932 ft | 487 kts | 20° |
| 2026-05-04 17:03 | 46.77378 | 0.33062 | 35923 ft | 486 kts | 20° |
| 2026-05-04 17:03 | 46.86871 | 0.38136 | 35919 ft | 486 kts | 20° |
| 2026-05-04 17:04 | 46.99487 | 0.44916 | 35919 ft | 486 kts | 20° |
| 2026-05-04 17:05 | 47.12161 | 0.51760 | 35924 ft | 486 kts | 20° |
| 2026-05-04 17:06 | 47.21664 | 0.56903 | 35917 ft | 485 kts | 20° |
| 2026-05-04 17:07 | 47.28999 | 0.60894 | 35936 ft | 484 kts | 20° |
| 2026-05-04 17:07 | 47.37366 | 0.65463 | 35930 ft | 482 kts | 21° |
| 2026-05-04 17:08 | 47.46824 | 0.70650 | 35950 ft | 483 kts | 21° |
| 2026-05-04 17:09 | 47.53114 | 0.74087 | 35941 ft | 483 kts | 20° |
| 2026-05-04 17:09 | 47.59420 | 0.77492 | 35938 ft | 482 kts | 20° |
| 2026-05-04 17:10 | 47.75085 | 0.86010 | 35928 ft | 480 kts | 20° |
| 2026-05-04 17:11 | 47.81338 | 0.89433 | 35939 ft | 479 kts | 20° |
| 2026-05-04 17:12 | 47.90770 | 0.94338 | 35946 ft | 479 kts | 18° |
| 2026-05-04 17:13 | 48.06519 | 1.02268 | 35940 ft | 479 kts | 19° |
| 2026-05-04 17:14 | 48.19136 | 1.08708 | 35936 ft | 479 kts | 19° |
| 2026-05-04 17:15 | 48.28552 | 1.13500 | 35937 ft | 478 kts | 18° |
| 2026-05-04 17:16 | 48.41124 | 1.19919 | 35935 ft | 479 kts | 18° |
| 2026-05-04 17:17 | 48.53674 | 1.26376 | 35936 ft | 478 kts | 18° |
| 2026-05-04 17:18 | 48.66291 | 1.32745 | 35933 ft | 479 kts | 18° |
| 2026-05-04 17:19 | 48.78943 | 1.39145 | 35932 ft | 479 kts | 18° |
| 2026-05-04 17:20 | 48.90498 | 1.45152 | 35931 ft | 479 kts | 22° |
| 2026-05-04 17:20 | 48.97317 | 1.50674 | 35933 ft | 478 kts | 35° |
| 2026-05-04 17:20 | 48.99972 | 1.53683 | 35935 ft | 477 kts | 40° |
| 2026-05-04 17:21 | 49.09063 | 1.68238 | 35938 ft | 475 kts | 51° |
| 2026-05-04 17:22 | 49.13421 | 1.75816 | 35938 ft | 476 kts | 50° |
| 2026-05-04 17:23 | 49.22159 | 1.90935 | 35940 ft | 476 kts | 50° |
| 2026-05-04 17:24 | 49.28712 | 2.02315 | 35942 ft | 476 kts | 50° |
| 2026-05-04 17:25 | 49.37417 | 2.17508 | 35945 ft | 477 kts | 50° |
| 2026-05-04 17:26 | 49.46099 | 2.32749 | 35804 ft | 476 kts | 50° |
| 2026-05-04 17:26 | 49.52759 | 2.44138 | 35918 ft | 479 kts | 45° |
| 2026-05-04 17:27 | 49.57720 | 2.50868 | 35940 ft | 481 kts | 38° |
| 2026-05-04 17:28 | 49.67961 | 2.61312 | 35947 ft | 482 kts | 32° |
| 2026-05-04 17:29 | 49.85897 | 2.78702 | 35948 ft | 482 kts | 33° |
| 2026-05-04 17:31 | 49.99073 | 2.91632 | 35945 ft | 482 kts | 33° |
| 2026-05-04 17:32 | 50.14122 | 3.06508 | 35940 ft | 483 kts | 33° |
| 2026-05-04 17:33 | 50.25716 | 3.17202 | 35946 ft | 483 kts | 25° |
| 2026-05-04 17:34 | 50.36930 | 3.25058 | 35958 ft | 483 kts | 24° |
| 2026-05-04 17:35 | 50.53041 | 3.37265 | 35959 ft | 483 kts | 24° |
| 2026-05-04 17:36 | 50.59203 | 3.41579 | 35967 ft | 483 kts | 23° |
| 2026-05-04 17:36 | 50.64298 | 3.45118 | 35967 ft | 483 kts | 23° |
| 2026-05-04 17:37 | 50.70468 | 3.49433 | 35967 ft | 483 kts | 23° |
| 2026-05-04 17:37 | 50.76593 | 3.53741 | 35974 ft | 484 kts | 23° |
| 2026-05-04 17:38 | 50.83762 | 3.58801 | 35972 ft | 484 kts | 23° |
| 2026-05-04 17:38 | 50.88866 | 3.62414 | 35969 ft | 483 kts | 24° |
| 2026-05-04 17:39 | 50.98000 | 3.68903 | 35966 ft | 482 kts | 24° |
| 2026-05-04 17:39 | 51.04070 | 3.73233 | 35970 ft | 482 kts | 24° |
| 2026-05-04 17:40 | 51.10052 | 3.77509 | 36139 ft | 482 kts | 24° |
| 2026-05-04 17:40 | 51.13260 | 3.79809 | 36273 ft | 481 kts | 24° |
| 2026-05-04 17:40 | 51.16316 | 3.82004 | 36386 ft | 480 kts | 24° |
| 2026-05-04 17:41 | 51.19335 | 3.84174 | 36511 ft | 480 kts | 24° |
| 2026-05-04 17:41 | 51.22370 | 3.86360 | 36626 ft | 480 kts | 24° |
| 2026-05-04 17:41 | 51.25424 | 3.88562 | 36743 ft | 480 kts | 24° |
| 2026-05-04 17:41 | 51.28437 | 3.90738 | 36851 ft | 480 kts | 24° |
| 2026-05-04 17:42 | 51.31470 | 3.92931 | 36955 ft | 480 kts | 24° |
| 2026-05-04 17:42 | 51.34510 | 3.95133 | 36957 ft | 476 kts | 24° |
| 2026-05-04 17:42 | 51.40511 | 3.99490 | 36966 ft | 474 kts | 24° |
| 2026-05-04 17:43 | 51.46502 | 4.03902 | 36966 ft | 474 kts | 26° |
| 2026-05-04 17:43 | 51.52238 | 4.09082 | 36969 ft | 474 kts | 31° |
| 2026-05-04 17:44 | 51.57814 | 4.14711 | 36969 ft | 474 kts | 32° |
| 2026-05-04 17:44 | 51.63382 | 4.20373 | 36970 ft | 474 kts | 32° |
| 2026-05-04 17:45 | 51.68955 | 4.26039 | 36971 ft | 474 kts | 32° |
| 2026-05-04 17:45 | 51.75465 | 4.32665 | 36968 ft | 475 kts | 32° |
| 2026-05-04 17:46 | 51.80091 | 4.37382 | 36973 ft | 476 kts | 32° |
| 2026-05-04 17:46 | 51.85683 | 4.43103 | 36973 ft | 475 kts | 32° |
| 2026-05-04 17:47 | 51.91261 | 4.48828 | 36973 ft | 475 kts | 32° |
| 2026-05-04 17:47 | 51.97753 | 4.55511 | 36977 ft | 476 kts | 31° |
| 2026-05-04 17:48 | 52.02409 | 4.60318 | 36987 ft | 475 kts | 31° |
| 2026-05-04 17:48 | 52.07964 | 4.66069 | 36972 ft | 474 kts | 32° |
| 2026-05-04 17:49 | 52.13516 | 4.71834 | 36978 ft | 475 kts | 32° |
| 2026-05-04 17:49 | 52.19047 | 4.77596 | 36980 ft | 475 kts | 32° |
| 2026-05-04 17:50 | 52.24622 | 4.83419 | 36985 ft | 474 kts | 32° |
| 2026-05-04 17:50 | 52.30149 | 4.89210 | 36984 ft | 474 kts | 32° |
| 2026-05-04 17:51 | 52.35701 | 4.95045 | 36986 ft | 474 kts | 32° |
| 2026-05-04 17:51 | 52.41214 | 5.00856 | 36984 ft | 474 kts | 32° |
| 2026-05-04 17:52 | 52.46762 | 5.06724 | 36988 ft | 474 kts | 32° |
| 2026-05-04 17:52 | 52.52272 | 5.12565 | 36986 ft | 475 kts | 32° |
| 2026-05-04 17:53 | 52.57799 | 5.18446 | 36979 ft | 474 kts | 31° |
| 2026-05-04 17:53 | 52.63340 | 5.24361 | 36995 ft | 473 kts | 31° |
| 2026-05-04 17:54 | 52.68828 | 5.30231 | 36992 ft | 473 kts | 31° |
| 2026-05-04 17:54 | 52.74320 | 5.36126 | 37001 ft | 473 kts | 31° |
| 2026-05-04 17:55 | 52.79837 | 5.42068 | 36998 ft | 473 kts | 31° |
| 2026-05-04 17:55 | 52.85337 | 5.48008 | 37002 ft | 473 kts | 31° |
| 2026-05-04 17:56 | 52.90842 | 5.53974 | 37003 ft | 474 kts | 31° |
| 2026-05-04 17:56 | 52.96342 | 5.59953 | 37004 ft | 473 kts | 31° |
| 2026-05-04 17:57 | 53.01812 | 5.65917 | 37002 ft | 474 kts | 32° |
| 2026-05-04 17:57 | 53.07306 | 5.71924 | 37009 ft | 474 kts | 32° |
| 2026-05-04 17:58 | 53.12633 | 5.77768 | 37016 ft | 474 kts | 32° |
| 2026-05-04 17:58 | 53.18147 | 5.83833 | 37016 ft | 474 kts | 32° |
| 2026-05-04 17:59 | 53.23632 | 5.89887 | 37010 ft | 473 kts | 32° |
| 2026-05-04 18:00 | 53.31827 | 5.98970 | 37016 ft | 472 kts | 32° |
| 2026-05-04 18:00 | 53.37241 | 6.04997 | 37015 ft | 472 kts | 32° |
| 2026-05-04 18:01 | 53.42680 | 6.11071 | 37010 ft | 471 kts | 32° |
| 2026-05-04 18:01 | 53.48126 | 6.17169 | 37010 ft | 473 kts | 31° |
| 2026-05-04 18:02 | 53.56322 | 6.26379 | 37014 ft | 473 kts | 31° |
| 2026-05-04 18:02 | 53.61765 | 6.32518 | 37009 ft | 473 kts | 31° |
| 2026-05-04 18:03 | 53.67203 | 6.38673 | 37014 ft | 472 kts | 31° |
| 2026-05-04 18:03 | 53.72618 | 6.44823 | 37022 ft | 472 kts | 31° |
| 2026-05-04 18:04 | 53.78047 | 6.51004 | 37026 ft | 471 kts | 31° |
| 2026-05-04 18:05 | 53.86166 | 6.60293 | 37023 ft | 472 kts | 31° |
| 2026-05-04 18:05 | 53.91610 | 6.66547 | 37024 ft | 471 kts | 32° |
| 2026-05-04 18:06 | 53.99714 | 6.75894 | 37024 ft | 471 kts | 32° |
| 2026-05-04 18:06 | 54.05122 | 6.82154 | 37025 ft | 472 kts | 32° |
| 2026-05-04 18:07 | 54.10493 | 6.88391 | 37022 ft | 469 kts | 32° |
| 2026-05-04 18:07 | 54.15857 | 6.94639 | 37024 ft | 468 kts | 32° |
| 2026-05-04 18:08 | 54.21223 | 7.00909 | 37020 ft | 467 kts | 32° |
| 2026-05-04 18:08 | 54.26570 | 7.07178 | 37023 ft | 467 kts | 32° |
| 2026-05-04 18:09 | 54.37208 | 7.19705 | 37019 ft | 466 kts | 32° |
| 2026-05-04 18:10 | 54.42573 | 7.26051 | 37014 ft | 468 kts | 32° |
| 2026-05-04 18:10 | 54.47886 | 7.32358 | 37015 ft | 467 kts | 32° |
| 2026-05-04 18:11 | 54.53213 | 7.38705 | 37013 ft | 466 kts | 32° |
| 2026-05-04 18:11 | 54.58510 | 7.45035 | 37009 ft | 466 kts | 32° |
| 2026-05-04 18:12 | 54.63807 | 7.51389 | 37010 ft | 465 kts | 32° |
| 2026-05-04 18:12 | 54.69111 | 7.57766 | 37013 ft | 464 kts | 32° |
| 2026-05-04 18:13 | 54.74388 | 7.64135 | 37014 ft | 464 kts | 32° |
| 2026-05-04 18:14 | 54.82291 | 7.73710 | 37014 ft | 464 kts | 33° |
| 2026-05-04 18:14 | 54.87585 | 7.80152 | 37018 ft | 464 kts | 33° |
| 2026-05-04 18:15 | 54.98089 | 7.92989 | 37013 ft | 463 kts | 33° |
| 2026-05-04 18:16 | 55.03146 | 7.99925 | 37014 ft | 464 kts | 38° |
| 2026-05-04 18:16 | 55.08028 | 8.07192 | 37013 ft | 464 kts | 38° |
| 2026-05-04 18:17 | 55.15346 | 8.18159 | 37007 ft | 465 kts | 38° |
| 2026-05-04 18:18 | 55.22719 | 8.29232 | 37009 ft | 466 kts | 38° |
| 2026-05-04 18:18 | 55.27622 | 8.36622 | 37007 ft | 466 kts | 38° |
| 2026-05-04 18:19 | 55.34950 | 8.47715 | 37001 ft | 467 kts | 38° |
| 2026-05-04 18:19 | 55.39859 | 8.55177 | 37005 ft | 468 kts | 38° |
| 2026-05-04 18:20 | 55.44750 | 8.62630 | 37007 ft | 468 kts | 38° |
| 2026-05-04 18:20 | 55.49641 | 8.70112 | 37006 ft | 468 kts | 38° |
| 2026-05-04 18:21 | 55.54525 | 8.77607 | 37002 ft | 468 kts | 38° |
| 2026-05-04 18:21 | 55.59444 | 8.85190 | 36998 ft | 469 kts | 38° |
| 2026-05-04 18:22 | 55.64334 | 8.92752 | 36996 ft | 469 kts | 38° |
| 2026-05-04 18:22 | 55.69210 | 9.00316 | 36995 ft | 470 kts | 38° |
| 2026-05-04 18:23 | 55.74110 | 9.07947 | 36993 ft | 470 kts | 38° |
| 2026-05-04 18:23 | 55.79015 | 9.15612 | 36987 ft | 471 kts | 38° |
| 2026-05-04 18:24 | 55.83894 | 9.23264 | 36982 ft | 470 kts | 38° |
| 2026-05-04 18:24 | 55.88767 | 9.30929 | 36976 ft | 470 kts | 38° |
| 2026-05-04 18:25 | 55.93648 | 9.38633 | 36971 ft | 469 kts | 38° |
| 2026-05-04 18:25 | 55.98538 | 9.46380 | 36965 ft | 470 kts | 38° |
| 2026-05-04 18:26 | 56.03386 | 9.54090 | 36958 ft | 469 kts | 38° |
| 2026-05-04 18:26 | 56.08255 | 9.61864 | 36958 ft | 469 kts | 38° |
| 2026-05-04 18:27 | 56.13123 | 9.69658 | 36960 ft | 470 kts | 39° |
| 2026-05-04 18:27 | 56.17958 | 9.77428 | 36956 ft | 471 kts | 39° |
| 2026-05-04 18:28 | 56.22828 | 9.85283 | 36950 ft | 472 kts | 39° |
| 2026-05-04 18:28 | 56.27618 | 9.93307 | 36949 ft | 473 kts | 41° |
| 2026-05-04 18:29 | 56.32305 | 10.01605 | 36948 ft | 473 kts | 41° |
| 2026-05-04 18:29 | 56.36981 | 10.09894 | 36943 ft | 473 kts | 41° |
| 2026-05-04 18:30 | 56.43975 | 10.22288 | 36943 ft | 473 kts | 41° |
| 2026-05-04 18:31 | 56.48666 | 10.30629 | 36942 ft | 473 kts | 41° |
| 2026-05-04 18:31 | 56.53320 | 10.38932 | 36941 ft | 474 kts | 41° |
| 2026-05-04 18:32 | 56.58014 | 10.47334 | 36938 ft | 474 kts | 41° |
| 2026-05-04 18:32 | 56.62684 | 10.55724 | 36934 ft | 475 kts | 41° |
| 2026-05-04 18:33 | 56.67330 | 10.64104 | 36932 ft | 475 kts | 40° |
| 2026-05-04 18:33 | 56.72022 | 10.72597 | 36936 ft | 475 kts | 41° |
| 2026-05-04 18:34 | 56.76699 | 10.81095 | 36932 ft | 476 kts | 41° |
| 2026-05-04 18:34 | 56.81344 | 10.89568 | 36933 ft | 475 kts | 41° |
| 2026-05-04 18:35 | 56.85996 | 10.98085 | 36934 ft | 476 kts | 41° |
| 2026-05-04 18:35 | 56.90650 | 11.06635 | 36944 ft | 476 kts | 41° |
| 2026-05-04 18:36 | 56.95313 | 11.15233 | 36940 ft | 477 kts | 41° |
| 2026-05-04 18:36 | 56.99981 | 11.23874 | 36929 ft | 478 kts | 41° |
| 2026-05-04 18:37 | 57.04621 | 11.32498 | 36919 ft | 479 kts | 41° |
| 2026-05-04 18:37 | 57.09289 | 11.41206 | 36914 ft | 478 kts | 41° |
| 2026-05-04 18:38 | 57.13918 | 11.49876 | 36906 ft | 478 kts | 41° |
| 2026-05-04 18:38 | 57.18548 | 11.58580 | 36897 ft | 478 kts | 41° |
| 2026-05-04 18:39 | 57.23201 | 11.67358 | 36890 ft | 479 kts | 42° |
| 2026-05-04 18:39 | 57.27824 | 11.76115 | 36886 ft | 479 kts | 42° |
| 2026-05-04 18:40 | 57.32471 | 11.84953 | 36880 ft | 480 kts | 42° |
| 2026-05-04 18:40 | 57.37090 | 11.93777 | 36875 ft | 481 kts | 42° |
| 2026-05-04 18:41 | 57.41733 | 12.02668 | 36876 ft | 481 kts | 42° |
| 2026-05-04 18:41 | 57.46378 | 12.11600 | 36871 ft | 481 kts | 42° |
| 2026-05-04 18:42 | 57.50986 | 12.20500 | 36861 ft | 482 kts | 41° |
| 2026-05-04 18:42 | 57.55605 | 12.29458 | 36869 ft | 482 kts | 41° |
| 2026-05-04 18:43 | 57.60243 | 12.38484 | 36866 ft | 483 kts | 41° |
| 2026-05-04 18:43 | 57.64874 | 12.47537 | 36859 ft | 484 kts | 41° |
| 2026-05-04 18:44 | 57.69496 | 12.56606 | 36856 ft | 485 kts | 41° |
| 2026-05-04 18:44 | 57.74141 | 12.65753 | 36851 ft | 485 kts | 43° |
| 2026-05-04 18:45 | 57.78697 | 12.74766 | 36844 ft | 486 kts | 43° |
| 2026-05-04 18:45 | 57.83319 | 12.83947 | 36839 ft | 487 kts | 43° |
| 2026-05-04 18:46 | 57.87962 | 12.93205 | 36835 ft | 487 kts | 42° |
| 2026-05-04 18:46 | 57.92570 | 13.02430 | 36819 ft | 488 kts | 42° |
| 2026-05-04 18:47 | 57.97171 | 13.11679 | 36812 ft | 488 kts | 42° |
| 2026-05-04 18:47 | 58.01792 | 13.21003 | 36812 ft | 489 kts | 42° |
| 2026-05-04 18:48 | 58.06412 | 13.30363 | 36803 ft | 490 kts | 42° |
| 2026-05-04 18:48 | 58.11023 | 13.39744 | 36791 ft | 490 kts | 42° |
| 2026-05-04 18:49 | 58.15686 | 13.49277 | 36793 ft | 490 kts | 42° |
| 2026-05-04 18:49 | 58.20283 | 13.58704 | 36786 ft | 491 kts | 42° |
| 2026-05-04 18:50 | 58.24858 | 13.68130 | 36785 ft | 491 kts | 43° |
| 2026-05-04 18:50 | 58.29506 | 13.77742 | 36775 ft | 492 kts | 43° |
| 2026-05-04 18:51 | 58.34088 | 13.87264 | 36774 ft | 492 kts | 43° |
| 2026-05-04 18:51 | 58.38688 | 13.96852 | 36775 ft | 493 kts | 43° |
| 2026-05-04 18:52 | 58.43294 | 14.06506 | 36779 ft | 493 kts | 43° |
| 2026-05-04 18:52 | 58.47883 | 14.16159 | 36765 ft | 493 kts | 43° |
| 2026-05-04 18:53 | 58.52469 | 14.25849 | 36763 ft | 493 kts | 43° |
| 2026-05-04 18:53 | 58.57056 | 14.35586 | 36753 ft | 493 kts | 43° |
| 2026-05-04 18:54 | 58.61612 | 14.45276 | 36752 ft | 493 kts | 43° |
| 2026-05-04 18:54 | 58.66196 | 14.55071 | 36762 ft | 494 kts | 43° |
| 2026-05-04 18:55 | 58.70717 | 14.64785 | 36744 ft | 489 kts | 43° |
| 2026-05-04 18:55 | 58.77510 | 14.79452 | 36686 ft | 488 kts | 44° |
| 2026-05-04 18:56 | 58.79752 | 14.84314 | 36171 ft | 491 kts | 44° |
| 2026-05-04 18:56 | 58.82034 | 14.89272 | 35457 ft | 498 kts | 43° |
| 2026-05-04 18:56 | 58.84317 | 14.94244 | 34869 ft | 504 kts | 43° |
| 2026-05-04 18:56 | 58.86652 | 14.99342 | 34143 ft | 507 kts | 43° |
| 2026-05-04 18:57 | 58.88953 | 15.04370 | 33374 ft | 507 kts | 43° |
| 2026-05-04 18:57 | 58.91275 | 15.09456 | 32534 ft | 509 kts | 43° |
| 2026-05-04 18:57 | 58.93627 | 15.14617 | 31649 ft | 511 kts | 43° |
| 2026-05-04 18:57 | 58.95950 | 15.19731 | 30915 ft | 509 kts | 43° |
| 2026-05-04 18:58 | 58.98283 | 15.24884 | 30167 ft | 507 kts | 43° |
| 2026-05-04 18:58 | 59.00582 | 15.29977 | 29502 ft | 503 kts | 43° |
| 2026-05-04 18:58 | 59.02853 | 15.35018 | 28863 ft | 498 kts | 43° |
| 2026-05-04 18:58 | 59.05126 | 15.40068 | 28237 ft | 494 kts | 43° |
| 2026-05-04 18:59 | 59.07367 | 15.45060 | 27609 ft | 490 kts | 43° |
| 2026-05-04 18:59 | 59.09575 | 15.49991 | 26979 ft | 487 kts | 43° |
| 2026-05-04 18:59 | 59.11715 | 15.54773 | 26384 ft | 483 kts | 42° |
| 2026-05-04 18:59 | 59.13908 | 15.59690 | 25802 ft | 479 kts | 42° |
| 2026-05-04 19:00 | 59.16075 | 15.64555 | 25214 ft | 475 kts | 42° |
| 2026-05-04 19:00 | 59.18200 | 15.69344 | 24870 ft | 465 kts | 43° |
| 2026-05-04 19:00 | 59.20313 | 15.74098 | 24708 ft | 451 kts | 43° |
| 2026-05-04 19:00 | 59.22311 | 15.78570 | 24689 ft | 434 kts | 42° |
| 2026-05-04 19:01 | 59.24255 | 15.82916 | 24686 ft | 418 kts | 42° |
| 2026-05-04 19:01 | 59.26125 | 15.87106 | 24686 ft | 402 kts | 41° |
| 2026-05-04 19:01 | 59.27921 | 15.91135 | 24686 ft | 387 kts | 41° |
| 2026-05-04 19:01 | 59.29662 | 15.95055 | 24680 ft | 372 kts | 41° |
| 2026-05-04 19:02 | 59.31321 | 15.98786 | 24660 ft | 364 kts | 40° |
| 2026-05-04 19:02 | 59.32979 | 16.02502 | 24169 ft | 368 kts | 40° |
| 2026-05-04 19:02 | 59.34694 | 16.06328 | 23416 ft | 379 kts | 41° |
| 2026-05-04 19:02 | 59.36445 | 16.10264 | 22635 ft | 390 kts | 41° |
| 2026-05-04 19:03 | 59.38218 | 16.14278 | 21829 ft | 400 kts | 41° |
| 2026-05-04 19:03 | 59.40065 | 16.18465 | 20972 ft | 411 kts | 42° |
| 2026-05-04 19:03 | 59.41918 | 16.22795 | 20087 ft | 423 kts | 44° |
| 2026-05-04 19:03 | 59.43759 | 16.27355 | 19162 ft | 433 kts | 45° |
| 2026-05-04 19:04 | 59.45614 | 16.32031 | 18340 ft | 437 kts | 46° |
| 2026-05-04 19:04 | 59.47464 | 16.36723 | 17765 ft | 434 kts | 46° |
| 2026-05-04 19:04 | 59.49288 | 16.41357 | 17258 ft | 429 kts | 46° |
| 2026-05-04 19:04 | 59.51110 | 16.45979 | 16787 ft | 424 kts | 47° |
| 2026-05-04 19:05 | 59.52908 | 16.50543 | 16248 ft | 420 kts | 47° |
| 2026-05-04 19:05 | 59.54702 | 16.55101 | 15732 ft | 416 kts | 47° |
| 2026-05-04 19:05 | 59.56452 | 16.59546 | 15254 ft | 411 kts | 47° |
| 2026-05-04 19:05 | 59.58270 | 16.63870 | 14745 ft | 404 kts | 41° |
| 2026-05-04 19:06 | 59.60302 | 16.67537 | 14278 ft | 394 kts | 33° |
| 2026-05-04 19:06 | 59.62408 | 16.71014 | 13837 ft | 392 kts | 43° |
| 2026-05-04 19:06 | 59.63940 | 16.75440 | 13355 ft | 394 kts | 62° |
| 2026-05-04 19:06 | 59.65021 | 16.80365 | 12904 ft | 391 kts | 66° |
| 2026-05-04 19:07 | 59.66002 | 16.85292 | 12412 ft | 387 kts | 67° |
| 2026-05-04 19:07 | 59.66969 | 16.90224 | 11957 ft | 383 kts | 67° |
| 2026-05-04 19:07 | 59.67926 | 16.95095 | 11474 ft | 379 kts | 67° |
| 2026-05-04 19:07 | 59.68865 | 16.99887 | 11019 ft | 375 kts | 67° |
| 2026-05-04 19:08 | 59.69803 | 17.04669 | 10549 ft | 371 kts | 67° |
| 2026-05-04 19:08 | 59.70732 | 17.09418 | 10077 ft | 366 kts | 67° |
| 2026-05-04 19:08 | 59.71635 | 17.14052 | 9608 ft | 363 kts | 67° |
| 2026-05-04 19:08 | 59.72538 | 17.18707 | 9102 ft | 360 kts | 67° |
| 2026-05-04 19:09 | 59.73426 | 17.23303 | 8610 ft | 357 kts | 67° |
| 2026-05-04 19:09 | 59.74307 | 17.27857 | 8114 ft | 354 kts | 67° |
| 2026-05-04 19:09 | 59.75181 | 17.32367 | 7597 ft | 352 kts | 67° |
| 2026-05-04 19:09 | 59.76060 | 17.36916 | 7091 ft | 350 kts | 67° |
| 2026-05-04 19:10 | 59.76920 | 17.41383 | 6568 ft | 348 kts | 67° |
| 2026-05-04 19:10 | 59.77485 | 17.44321 | 6231 ft | 346 kts | 67° |
| 2026-05-04 19:10 | 59.78631 | 17.50259 | 5541 ft | 343 kts | 67° |
| 2026-05-04 19:10 | 59.79473 | 17.54607 | 5035 ft | 341 kts | 67° |
| 2026-05-04 19:11 | 59.80315 | 17.58961 | 4683 ft | 334 kts | 67° |
| 2026-05-04 19:11 | 59.81133 | 17.63181 | 4501 ft | 322 kts | 67° |
| 2026-05-04 19:11 | 59.81931 | 17.67289 | 4319 ft | 310 kts | 68° |
| 2026-05-04 19:11 | 59.82693 | 17.71197 | 4139 ft | 300 kts | 68° |
| 2026-05-04 19:12 | 59.83443 | 17.75031 | 3956 ft | 290 kts | 68° |
| 2026-05-04 19:12 | 59.84849 | 17.82268 | 3595 ft | 273 kts | 68° |
| 2026-05-04 19:12 | 59.85522 | 17.85730 | 3415 ft | 265 kts | 68° |
| 2026-05-04 19:13 | 59.86176 | 17.89083 | 3236 ft | 258 kts | 68° |
| 2026-05-04 19:13 | 59.86824 | 17.92348 | 3055 ft | 252 kts | 68° |
| 2026-05-04 19:13 | 59.87464 | 17.95545 | 2873 ft | 245 kts | 71° |
| 2026-05-04 19:13 | 59.87702 | 17.98811 | 2665 ft | 235 kts | 103° |
| 2026-05-04 19:14 | 59.87097 | 18.01622 | 2521 ft | 215 kts | 138° |
| 2026-05-04 19:14 | 59.85915 | 18.03108 | 2437 ft | 192 kts | 175° |
| 2026-05-04 19:14 | 59.84611 | 18.03163 | 2455 ft | 187 kts | 193° |
| 2026-05-04 19:14 | 59.83343 | 18.02720 | 2450 ft | 185 kts | 197° |
| 2026-05-04 19:15 | 59.82084 | 18.02187 | 2448 ft | 185 kts | 197° |
| 2026-05-04 19:15 | 59.80818 | 18.01672 | 2444 ft | 185 kts | 196° |
| 2026-05-04 19:15 | 59.79131 | 18.01034 | 2445 ft | 185 kts | 196° |
| 2026-05-04 19:15 | 59.78298 | 18.00732 | 2450 ft | 186 kts | 196° |
| 2026-05-04 19:16 | 59.77032 | 18.00282 | 2552 ft | 179 kts | 196° |
| 2026-05-04 19:16 | 59.75826 | 17.99852 | 2327 ft | 176 kts | 196° |
| 2026-05-04 19:16 | 59.74632 | 17.99424 | 2080 ft | 172 kts | 195° |
| 2026-05-04 19:16 | 59.73468 | 17.99003 | 1823 ft | 167 kts | 195° |
| 2026-05-04 19:17 | 59.72364 | 17.98624 | 1603 ft | 157 kts | 196° |
| 2026-05-04 19:17 | 59.71348 | 17.98264 | 1433 ft | 138 kts | 197° |
| 2026-05-04 19:17 | 59.70451 | 17.97926 | 1253 ft | 128 kts | 197° |
| 2026-05-04 19:17 | 59.69581 | 17.97594 | 1080 ft | 128 kts | 196° |
| 2026-05-04 19:18 | 59.68706 | 17.97292 | 909 ft | 127 kts | 195° |
| 2026-05-04 19:18 | 59.67844 | 17.96971 | 744 ft | 127 kts | 195° |
| 2026-05-04 19:18 | 59.66974 | 17.96647 | 563 ft | 127 kts | 194° |
| 2026-05-04 19:18 | 59.66108 | 17.96338 | 385 ft | 126 kts | 193° |
| 2026-05-04 19:19 | 59.65252 | 17.96021 | 216 ft | 126 kts | 194° |
| 2026-05-04 19:19 | 59.64394 | 17.95712 | 110 ft | 120 kts | 193° |
| 2026-05-04 19:19 | 59.63718 | 17.95464 | 117 ft | 73 kts | 191° |
| 2026-05-04 19:19 | 59.63400 | 17.95285 | 125 ft | 32 kts | 212° |
| 2026-05-04 19:20 | 59.63290 | 17.95110 | 128 ft | 18 kts | 220° |
| 2026-05-04 19:20 | 59.63253 | 17.94932 | 128 ft | 15 kts | 310° |
| 2026-05-04 19:20 | 59.63363 | 17.94927 | 126 ft | 17 kts | 10° |
| 2026-05-04 19:20 | 59.63493 | 17.94974 | 122 ft | 20 kts | 10° |